createdAt,value
2018-05-16T00:02:27.066Z,101573.14
2018-05-16T00:05:29.464Z,101566.74
2018-05-16T00:08:31.540Z,101570.65
2018-05-16T00:11:33.646Z,101563.95
2018-05-16T00:14:37.744Z,101564.28
2018-05-16T00:17:39.776Z,101568.75
2018-05-16T00:20:42.019Z,101564.58
2018-05-16T00:23:43.933Z,101571.86
2018-05-16T00:26:46.020Z,101581.83
2018-05-16T00:29:48.048Z,101594.94
2018-05-16T00:32:50.194Z,101612.36
2018-05-16T00:35:52.251Z,101621.49
2018-05-16T00:38:55.424Z,101612.15
2018-05-16T00:41:57.483Z,101612.84
2018-05-16T00:44:59.561Z,101615.29
2018-05-16T00:48:02.631Z,101619.26
2018-05-16T00:51:13.892Z,101611.42
2018-05-16T00:54:15.959Z,101602.76
2018-05-16T00:57:17.980Z,101596.95
2018-05-16T01:00:20.137Z,101587.61
2018-05-16T01:03:22.088Z,101588.96
2018-05-16T01:06:24.180Z,101584.79
2018-05-16T01:09:26.228Z,101565.57
2018-05-16T01:12:28.312Z,101572.13
2018-05-16T01:15:30.396Z,101570.87
2018-05-16T01:18:32.567Z,101564.84
2018-05-16T01:21:34.628Z,101563.84
2018-05-16T01:24:36.664Z,101561.14
2018-05-16T01:27:39.751Z,101565.17
2018-05-16T01:30:42.880Z,101573.20
2018-05-16T01:33:44.925Z,101576.96
2018-05-16T01:36:47.002Z,101576.70
2018-05-16T01:39:49.200Z,101559.95
2018-05-16T01:42:51.242Z,101551.08
2018-05-16T01:45:53.312Z,101555.97
2018-05-16T01:49:04.569Z,101563.48
2018-05-16T01:52:06.663Z,101559.60
2018-05-16T01:55:08.756Z,101565.15
2018-05-16T01:58:10.919Z,101578.66
2018-05-16T02:01:12.989Z,101576.26
2018-05-16T02:04:15.109Z,101582.37
2018-05-16T02:07:17.250Z,101595.95
2018-05-16T02:10:19.370Z,101606.93
2018-05-16T02:13:21.323Z,101603.59
2018-05-16T02:16:23.391Z,101609.28
2018-05-16T02:19:25.445Z,101598.72
2018-05-16T02:22:27.559Z,101581.25
2018-05-16T02:25:29.731Z,101584.21
2018-05-16T02:28:31.798Z,101572.91
2018-05-16T02:31:33.919Z,101551.11
2018-05-16T02:34:36.040Z,101550.66
2018-05-16T02:37:38.211Z,101544.73
2018-05-16T02:40:40.260Z,101566.99
2018-05-16T02:43:43.074Z,101575.94
2018-05-16T02:46:45.112Z,101567.90
2018-05-16T02:49:47.215Z,101569.64
2018-05-16T02:52:49.250Z,101561.67
2018-05-16T02:55:51.344Z,101566.40
2018-05-16T02:58:53.425Z,101559.95
2018-05-16T03:01:55.584Z,101565.41
2018-05-16T03:04:57.676Z,101569.00
2018-05-16T03:07:59.836Z,101569.07
2018-05-16T03:11:01.883Z,101572.20
2018-05-16T03:14:04.060Z,101566.76
2018-05-16T03:17:06.129Z,101571.41
2018-05-16T03:20:08.117Z,101564.58
2018-05-16T03:23:10.708Z,101561.27
2018-05-16T03:26:14.056Z,101558.65
2018-05-16T03:29:16.110Z,101567.48
2018-05-16T03:32:18.179Z,101560.78
2018-05-16T03:35:21.325Z,101562.67
2018-05-16T03:38:23.386Z,101563.45
2018-05-16T03:41:25.551Z,101559.78
2018-05-16T03:44:27.617Z,101551.73
2018-05-16T03:47:29.792Z,101550.01
2018-05-16T03:50:31.875Z,101551.91
2018-05-16T03:53:34.030Z,101541.86
2018-05-16T03:56:36.183Z,101539.43
2018-05-16T04:00:53.413Z,101527.76
2018-05-16T04:04:06.572Z,101521.10
2018-05-16T04:07:08.714Z,101516.14
2018-05-16T04:10:10.888Z,101515.02
2018-05-16T04:13:14.504Z,101515.36
2018-05-16T04:16:16.556Z,101513.86
2018-05-16T04:19:18.716Z,101501.14
2018-05-16T04:22:20.818Z,101500.85
2018-05-16T04:25:23.068Z,101496.92
2018-05-16T04:28:25.127Z,101498.93
2018-05-16T04:31:27.254Z,101497.80
2018-05-16T04:34:29.316Z,101499.76
2018-05-16T04:37:32.379Z,101503.12
2018-05-16T04:40:34.448Z,101502.33
2018-05-16T04:43:36.542Z,101495.30
2018-05-16T04:46:38.669Z,101494.86
2018-05-16T04:49:40.713Z,101497.42
2018-05-16T04:52:44.513Z,101499.14
2018-05-16T04:55:46.605Z,101504.35
2018-05-16T04:58:48.571Z,101508.74
2018-05-16T05:01:51.712Z,101510.57
2018-05-16T05:04:53.860Z,101509.81
2018-05-16T05:07:55.949Z,101512.47
2018-05-16T05:10:59.668Z,101516.48
2018-05-16T05:14:01.629Z,101514.62
2018-05-16T05:17:04.844Z,101506.64
2018-05-16T05:20:06.975Z,101509.73
2018-05-16T05:23:08.993Z,101511.60
2018-05-16T05:26:11.088Z,101512.32
2018-05-16T05:29:14.178Z,101517.55
2018-05-16T05:32:16.261Z,101516.40
2018-05-16T05:35:18.493Z,101520.05
2018-05-16T05:38:20.641Z,101522.66
2018-05-16T05:41:22.675Z,101521.59
2018-05-16T05:44:25.991Z,101521.12
2018-05-16T05:47:28.020Z,101522.05
2018-05-16T05:50:30.107Z,101525.87
2018-05-16T05:53:32.191Z,101530.68
2018-05-16T05:56:34.287Z,101526.85
2018-05-16T05:59:36.310Z,101529.99
2018-05-16T06:02:38.334Z,101531.81
2018-05-16T06:05:40.550Z,101533.11
2018-05-16T06:08:42.638Z,101530.66
2018-05-16T06:11:44.679Z,101528.97
2018-05-16T06:14:46.761Z,101530.83
2018-05-16T06:17:48.937Z,101531.01
2018-05-16T06:20:50.959Z,101529.95
2018-05-16T06:23:53.129Z,101528.86
2018-05-16T06:26:55.155Z,101542.08
2018-05-16T06:29:57.315Z,101541.42
2018-05-16T06:32:59.395Z,101545.55
2018-05-16T06:36:01.420Z,101541.72
2018-05-16T06:39:04.562Z,101539.53
2018-05-16T06:42:06.612Z,101532.56
2018-05-16T06:45:08.687Z,101540.13
2018-05-16T06:48:10.868Z,101543.56
2018-05-16T06:51:12.889Z,101547.41
2018-05-16T06:54:14.860Z,101551.20
2018-05-16T06:57:17.015Z,101554.17
2018-05-16T07:00:19.161Z,101553.75
2018-05-16T07:03:21.128Z,101555.19
2018-05-16T07:06:23.164Z,101556.04
2018-05-16T07:09:25.298Z,101556.20
2018-05-16T07:12:27.284Z,101560.21
2018-05-16T07:15:29.375Z,101563.31
2018-05-16T07:18:31.533Z,101564.71
2018-05-16T07:21:35.252Z,101563.28
2018-05-16T07:24:37.527Z,101565.87
2018-05-16T07:27:39.625Z,101562.12
2018-05-16T07:30:41.706Z,101561.06
2018-05-16T07:33:43.879Z,101560.56
2018-05-16T07:36:45.947Z,101561.81
2018-05-16T07:39:48.099Z,101567.67
2018-05-16T07:42:50.136Z,101563.50
2018-05-16T07:45:52.205Z,101565.14
2018-05-16T07:48:54.389Z,101567.45
2018-05-16T07:51:56.427Z,101569.96
2018-05-16T07:54:58.539Z,101566.46
2018-05-16T07:58:00.885Z,101569.23
2018-05-16T08:01:05.218Z,101574.26
2018-05-16T08:04:07.255Z,101579.41
2018-05-16T08:07:09.361Z,101586.89
2018-05-16T08:10:11.420Z,101587.95
2018-05-16T08:13:13.604Z,101588.37
2018-05-16T08:16:15.756Z,101588.20
2018-05-16T08:19:17.833Z,101585.63
2018-05-16T08:22:19.906Z,101585.93
2018-05-16T08:25:21.994Z,101574.59
2018-05-16T08:28:24.133Z,101575.98
2018-05-16T08:31:26.198Z,101576.20
2018-05-16T08:34:28.349Z,101582.44
2018-05-16T08:37:30.511Z,101583.21
2018-05-16T08:40:32.631Z,101593.19
2018-05-16T08:43:34.696Z,101594.65
2018-05-16T08:46:36.979Z,101596.37
2018-05-16T08:49:39.011Z,101603.16
2018-05-16T08:52:41.108Z,101608.64
2018-05-16T08:55:43.164Z,101610.35
2018-05-16T08:58:45.253Z,101616.23
2018-05-16T09:01:48.696Z,101617.77
2018-05-16T09:04:50.958Z,101619.77
2018-05-16T09:07:53.208Z,101619.92
2018-05-16T09:10:55.400Z,101623.67
2018-05-16T09:13:57.513Z,101626.50
2018-05-16T09:16:59.612Z,101623.09
2018-05-16T09:20:01.841Z,101623.46
2018-05-16T09:23:03.940Z,101625.83
2018-05-16T09:26:06.037Z,101625.47
2018-05-16T09:29:08.185Z,101628.60
2018-05-16T09:32:10.241Z,101626.47
2018-05-16T09:35:12.373Z,101623.13
2018-05-16T09:38:14.571Z,101627.00
2018-05-16T09:41:17.119Z,101627.04
2018-05-16T09:44:19.642Z,101624.72
2018-05-16T09:47:21.736Z,101630.39
2018-05-16T09:50:23.762Z,101625.97
2018-05-16T09:53:25.804Z,101626.28
2018-05-16T09:56:28.819Z,101624.42
2018-05-16T09:59:30.914Z,101626.10
2018-05-16T10:02:32.929Z,101625.67
2018-05-16T10:05:35.149Z,101633.94
2018-05-16T10:08:37.196Z,101644.68
2018-05-16T10:11:39.284Z,101647.20
2018-05-16T10:14:41.340Z,101646.71
2018-05-16T10:17:43.449Z,101648.79
2018-05-16T10:20:45.461Z,101656.03
2018-05-16T10:23:48.977Z,101650.48
2018-05-16T10:26:51.072Z,101653.76
2018-05-16T10:29:53.254Z,101651.81
2018-05-16T10:32:55.263Z,101658.36
2018-05-16T10:35:57.378Z,101669.72
2018-05-16T10:38:59.442Z,101666.06
2018-05-16T10:42:01.532Z,101672.11
2018-05-16T10:45:03.585Z,101673.27
2018-05-16T10:48:05.659Z,101670.24
2018-05-16T10:51:08.724Z,101677.30
2018-05-16T10:54:10.780Z,101674.31
2018-05-16T10:57:12.937Z,101681.14
2018-05-16T11:00:15.104Z,101675.86
2018-05-16T11:03:17.327Z,101677.85
2018-05-16T11:06:19.376Z,101683.38
2018-05-16T11:09:21.444Z,101682.59
2018-05-16T11:12:23.524Z,101679.24
2018-05-16T11:15:25.558Z,101677.59
2018-05-16T11:18:28.630Z,101678.54
2018-05-16T11:21:30.741Z,101676.01
2018-05-16T11:24:32.705Z,101671.63
2018-05-16T11:27:34.767Z,101665.53
2018-05-16T11:30:36.848Z,101665.95
2018-05-16T11:33:38.943Z,101662.57
2018-05-16T11:36:41.058Z,101663.60
2018-05-16T11:39:43.109Z,101662.99
2018-05-16T11:42:45.285Z,101663.67
2018-05-16T11:45:47.324Z,101660.18
2018-05-16T11:48:49.391Z,101653.25
2018-05-16T11:51:51.419Z,101652.83
2018-05-16T11:54:53.496Z,101655.10
2018-05-16T11:57:55.605Z,101650.19
2018-05-16T12:00:57.692Z,101644.12
2018-05-16T12:03:59.733Z,101646.88
2018-05-16T12:07:01.816Z,101653.99
2018-05-16T12:10:03.860Z,101649.48
2018-05-16T12:13:05.899Z,101644.26
2018-05-16T12:16:07.943Z,101650.98
2018-05-16T12:19:09.932Z,101647.05
2018-05-16T12:22:12.040Z,101643.84
2018-05-16T12:25:14.072Z,101646.07
2018-05-16T12:28:16.188Z,101644.18
2018-05-16T12:31:18.429Z,101651.15
2018-05-16T12:34:20.616Z,101642.32
2018-05-16T12:37:22.763Z,101636.65
2018-05-16T12:40:24.822Z,101629.10
2018-05-16T12:43:29.563Z,101636.05
2018-05-16T12:46:31.716Z,101637.67
2018-05-16T12:49:33.797Z,101626.40
2018-05-16T12:52:35.789Z,101627.62
2018-05-16T12:55:38.890Z,101626.28
2018-05-16T12:58:40.967Z,101626.58
2018-05-16T13:01:43.078Z,101614.32
2018-05-16T13:04:45.189Z,101612.24
2018-05-16T13:07:47.240Z,101609.89
2018-05-16T13:10:50.152Z,101607.89
2018-05-16T13:13:52.215Z,101613.53
2018-05-16T13:16:54.246Z,101609.93
2018-05-16T13:19:56.328Z,101605.34
2018-05-16T13:22:59.546Z,101598.90
2018-05-16T13:26:01.612Z,101597.41
2018-05-16T13:29:03.686Z,101589.92
2018-05-16T13:32:05.761Z,101592.14
2018-05-16T13:35:07.869Z,101592.05
2018-05-16T13:38:09.984Z,101590.01
2018-05-16T13:41:12.137Z,101588.26
2018-05-16T13:44:14.295Z,101587.18
2018-05-16T13:47:16.347Z,101589.05
2018-05-16T13:50:18.588Z,101585.07
2018-05-16T13:53:20.678Z,101584.32
2018-05-16T13:56:22.723Z,101590.01
2018-05-16T13:59:24.912Z,101592.64
2018-05-16T14:02:27.083Z,101588.05
2018-05-16T14:05:29.332Z,101589.70
2018-05-16T14:08:31.468Z,101585.74
2018-05-16T14:11:33.609Z,101580.88
2018-05-16T14:14:35.720Z,101577.88
2018-05-16T14:17:37.771Z,101583.07
2018-05-16T14:20:39.798Z,101581.92
2018-05-16T14:23:41.812Z,101583.53
2018-05-16T14:26:43.775Z,101588.64
2018-05-16T14:29:47.142Z,101589.96
2018-05-16T14:32:49.208Z,101587.49
2018-05-16T14:35:51.339Z,101593.52
2018-05-16T14:38:53.423Z,101586.54
2018-05-16T14:41:55.487Z,101587.60
2018-05-16T14:44:57.636Z,101594.86
2018-05-16T14:47:59.722Z,101591.65
2018-05-16T14:51:01.962Z,101597.23
2018-05-16T14:54:04.095Z,101600.18
2018-05-16T14:57:06.339Z,101603.00
2018-05-16T15:00:08.360Z,101595.44
2018-05-16T15:03:11.000Z,101594.02
2018-05-16T15:06:13.171Z,101594.03
2018-05-16T15:09:16.336Z,101596.01
2018-05-16T15:12:18.649Z,101592.23
2018-05-16T15:15:20.797Z,101593.14
2018-05-16T15:18:22.923Z,101596.38
2018-05-16T15:21:25.195Z,101599.35
2018-05-16T15:24:27.309Z,101593.87
2018-05-16T15:27:29.580Z,101594.75
2018-05-16T15:30:31.526Z,101591.66
2018-05-16T15:33:33.720Z,101595.24
2018-05-16T15:36:35.872Z,101592.55
2018-05-16T15:39:38.107Z,101592.97
2018-05-16T15:42:40.317Z,101591.20
2018-05-16T15:45:42.448Z,101589.92
2018-05-16T15:48:44.419Z,101593.02
2018-05-16T15:51:48.033Z,101594.32
2018-05-16T15:54:50.476Z,101596.21
2018-05-16T15:57:52.528Z,101591.06
2018-05-16T16:00:54.920Z,101588.04
2018-05-16T16:03:57.055Z,101589.87
2018-05-16T16:06:59.361Z,101587.93
2018-05-16T16:10:01.507Z,101589.41
2018-05-16T16:13:03.582Z,101588.25
2018-05-16T16:16:05.660Z,101587.17
2018-05-16T16:19:07.874Z,101582.21
2018-05-16T16:22:10.111Z,101579.34
2018-05-16T16:25:12.144Z,101582.29
2018-05-16T16:28:14.233Z,101597.45
2018-05-16T16:31:18.249Z,101640.79
2018-05-16T16:34:20.215Z,101666.34
2018-05-16T16:37:22.291Z,101639.02
2018-05-16T16:40:24.678Z,101629.06
2018-05-16T16:43:26.830Z,101631.83
2018-05-16T16:46:29.219Z,101629.83
2018-05-16T16:49:31.699Z,101624.53
2018-05-16T16:52:33.863Z,101614.35
2018-05-16T16:55:36.225Z,101619.43
2018-05-16T16:58:38.505Z,101622.29
2018-05-16T17:01:40.783Z,101626.19
2018-05-16T17:04:42.987Z,101626.78
2018-05-16T17:07:45.036Z,101630.35
2018-05-16T17:10:47.921Z,101626.90
2018-05-16T17:13:49.976Z,101627.43
2018-05-16T17:16:52.048Z,101624.54
2018-05-16T17:19:54.416Z,101622.04
2018-05-16T17:22:56.588Z,101623.70
2018-05-16T17:25:58.851Z,101626.45
2018-05-16T17:29:01.048Z,101627.90
2018-05-16T17:32:03.144Z,101636.36
2018-05-16T17:35:06.149Z,101646.75
2018-05-16T17:38:09.679Z,101646.63
2018-05-16T17:41:12.067Z,101648.51
2018-05-16T17:44:14.151Z,101651.17
2018-05-16T17:47:17.175Z,101658.94
2018-05-16T17:50:19.202Z,101666.30
2018-05-16T17:53:21.872Z,101672.90
2018-05-16T17:56:24.151Z,101684.07
2018-05-16T17:59:26.231Z,101686.82
2018-05-16T18:02:28.323Z,101687.92
2018-05-16T18:05:30.743Z,101686.12
2018-05-16T18:08:32.835Z,101686.53
2018-05-16T18:11:34.877Z,101690.90
2018-05-16T18:14:47.439Z,101686.24
2018-05-16T18:17:49.431Z,101691.69
2018-05-16T18:20:51.452Z,101689.23
2018-05-16T18:23:54.666Z,101687.17
2018-05-16T18:26:56.998Z,101692.17
2018-05-16T18:29:59.058Z,101692.67
2018-05-16T18:33:02.424Z,101697.96
2018-05-16T18:36:04.537Z,101703.69
2018-05-16T18:39:06.594Z,101707.05
2018-05-16T18:42:09.053Z,101709.76
2018-05-16T18:45:11.156Z,101716.93
2018-05-16T18:48:13.476Z,101721.12
2018-05-16T18:51:15.879Z,101724.20
2018-05-16T18:54:18.199Z,101726.70
2018-05-16T18:57:20.496Z,101727.00
2018-05-16T19:00:22.779Z,101727.19
2018-05-16T19:03:24.753Z,101729.98
2018-05-16T19:06:27.273Z,101731.23
2018-05-16T19:09:29.680Z,101735.24
2018-05-16T19:12:31.791Z,101734.45
2018-05-16T19:15:34.217Z,101735.95
2018-05-16T19:18:36.347Z,101741.31
2018-05-16T19:21:38.384Z,101743.52
2018-05-16T19:24:40.344Z,101741.33
2018-05-16T19:27:42.384Z,101738.52
2018-05-16T19:30:44.495Z,101743.63
2018-05-16T19:33:47.424Z,101750.39
2018-05-16T19:36:49.491Z,101756.84
2018-05-16T19:39:51.706Z,101749.87
2018-05-16T19:42:53.964Z,101757.04
2018-05-16T19:45:56.221Z,101762.56
2018-05-16T19:48:58.440Z,101775.56
2018-05-16T19:52:00.557Z,101779.25
2018-05-16T19:55:02.919Z,101778.20
2018-05-16T19:58:05.037Z,101777.55
2018-05-16T20:01:07.064Z,101780.64
2018-05-16T20:04:09.568Z,101784.29
2018-05-16T20:07:11.785Z,101785.83
2018-05-16T20:10:15.327Z,101789.72
2018-05-16T20:13:17.431Z,101791.58
2018-05-16T20:16:19.543Z,101789.70
2018-05-16T20:19:22.929Z,101802.37
2018-05-16T20:22:25.056Z,101799.14
2018-05-16T20:25:27.090Z,101800.25
2018-05-16T20:28:29.208Z,101811.49
2018-05-16T20:31:31.207Z,101810.44
2018-05-16T20:34:33.199Z,101814.65
2018-05-16T20:37:35.168Z,101815.56
2018-05-16T20:40:37.408Z,101816.71
2018-05-16T20:43:39.620Z,101819.60
2018-05-16T20:46:41.696Z,101819.24
2018-05-16T20:49:43.820Z,101815.39
2018-05-16T20:52:45.936Z,101814.07
2018-05-16T20:55:48.056Z,101820.02
2018-05-16T20:58:50.205Z,101816.06
2018-05-16T21:01:52.232Z,101813.24
2018-05-16T21:04:54.383Z,101817.17
2018-05-16T21:07:56.396Z,101818.90
2018-05-16T21:10:58.597Z,101826.07
2018-05-16T21:14:00.603Z,101830.44
2018-05-16T21:17:02.668Z,101832.82
2018-05-16T21:20:04.892Z,101833.74
2018-05-16T21:23:06.953Z,101842.31
2018-05-16T21:26:09.056Z,101848.25
2018-05-16T21:29:11.170Z,101844.68
2018-05-16T21:32:14.287Z,101842.24
2018-05-16T21:35:16.336Z,101840.29
2018-05-16T21:38:18.516Z,101843.79
2018-05-16T21:41:20.504Z,101841.66
2018-05-16T21:44:22.511Z,101841.72
2018-05-16T21:47:24.592Z,101841.47
2018-05-16T21:50:26.660Z,101842.16
2018-05-16T21:53:28.731Z,101844.15
2018-05-16T21:56:30.675Z,101839.66
2018-05-16T21:59:32.759Z,101841.18
2018-05-16T22:02:34.811Z,101843.26
2018-05-16T22:05:36.947Z,101846.52
2018-05-16T22:08:40.020Z,101851.60
2018-05-16T22:11:42.052Z,101858.05
2018-05-16T22:14:49.116Z,101856.55
2018-05-16T22:17:51.324Z,101841.56
2018-05-16T22:20:53.391Z,101847.47
2018-05-16T22:23:55.435Z,101851.53
2018-05-16T22:26:57.583Z,101844.70
2018-05-16T22:29:59.979Z,101840.81
2018-05-16T22:33:07.897Z,101839.56
2018-05-16T22:36:15.729Z,101834.36
2018-05-16T22:39:23.446Z,101831.54
2018-05-16T22:42:28.964Z,101823.05
2018-05-16T22:45:31.110Z,101824.76
2018-05-16T22:48:33.252Z,101826.60
2018-05-16T22:51:35.395Z,101828.09
2018-05-16T22:54:37.426Z,101829.24
2018-05-16T22:57:39.511Z,101827.38
2018-05-16T23:00:41.616Z,101819.94
2018-05-16T23:03:44.059Z,101819.78
2018-05-16T23:06:46.145Z,101813.90
2018-05-16T23:09:48.253Z,101808.93
2018-05-16T23:12:50.263Z,101810.07
2018-05-16T23:15:52.324Z,101805.20
2018-05-16T23:18:54.675Z,101808.44
2018-05-16T23:21:56.744Z,101804.55
2018-05-16T23:24:58.758Z,101797.76
2018-05-16T23:28:04.718Z,101804.23
2018-05-16T23:31:06.792Z,101805.76
2018-05-16T23:34:08.855Z,101808.89
2018-05-16T23:37:11.372Z,101803.52
2018-05-16T23:40:13.525Z,101801.59
2018-05-16T23:43:15.773Z,101800.32
2018-05-16T23:46:17.852Z,101798.30
2018-05-16T23:49:19.932Z,101803.50
2018-05-16T23:52:22.979Z,101809.03
2018-05-16T23:55:25.173Z,101812.13
2018-05-16T23:58:27.222Z,101812.29
